Time;durP1;ratioP1;P1;durP2;ratioP2;P2;SDS_P1;SDS_P2;PMS_P1;PMS_P2;Temp;Humidity;BMP_temperature;BMP_pressure;BME280_temperature;BME280_humidity;BME280_pressure;Samples;Min_cycle;Max_cycle;Signal;HPM_P1;HPM_P2
2022/03/10 00:00:57;;;;;;;;;17.00;16.00;;;;;21.56;38.52;102335.44;110357;1261;18308;-49
2022/03/10 00:03:25;;;;;;;;;16.00;13.50;;;;;21.56;38.76;102342.44;110359;1262;19743;-48
2022/03/10 00:05:52;;;;;;;;;13.33;13.00;;;;;21.57;38.81;102343.54;110267;1264;18718;-48
2022/03/10 00:08:19;;;;;;;;;16.50;14.00;;;;;21.56;38.72;102347.17;110319;1263;20349;-48
2022/03/10 00:10:46;;;;;;;;;16.00;15.00;;;;;21.57;38.49;102353.88;110293;1264;19209;-49
2022/03/10 00:13:14;;;;;;;;;14.00;13.50;;;;;21.56;38.55;102357.02;110279;1265;19385;-47
2022/03/10 00:15:41;;;;;;;;;12.33;10.67;;;;;21.55;38.50;102359.67;110282;1264;18244;-48
2022/03/10 00:18:08;;;;;;;;;16.00;15.00;;;;;21.56;38.47;102360.70;110254;1263;18684;-50
2022/03/10 00:20:35;;;;;;;;;13.00;12.50;;;;;21.55;38.31;102363.67;110292;1264;18765;-48
2022/03/10 00:23:03;;;;;;;;;14.00;13.00;;;;;21.55;38.50;102365.33;110316;1265;18346;-48
2022/03/10 00:25:30;;;;;;;;;13.00;13.00;;;;;21.56;38.57;102371.27;110305;1265;21373;-50
2022/03/10 00:27:57;;;;;;;;;17.33;14.67;;;;;21.55;38.34;102372.05;110269;1264;19110;-49
2022/03/10 00:30:24;;;;;;;;;14.00;12.67;;;;;21.55;38.37;102373.89;110262;1264;18197;-49
2022/03/10 00:32:52;;;;;;;;;14.00;14.00;;;;;21.54;38.33;102373.61;110251;1264;18753;-51
2022/03/10 00:35:20;;;;;;;;;13.00;12.00;;;;;21.54;38.46;102372.92;110341;1264;18716;-50
2022/03/10 00:37:47;;;;;;;;;13.00;12.00;;;;;21.54;38.40;102376.95;110269;1265;18311;-48
2022/03/10 00:40:14;;;;;;;;;13.00;13.00;;;;;21.54;38.18;102381.08;110279;1264;19044;-49
2022/03/10 00:42:42;;;;;;;;;17.00;14.00;;;;;21.53;38.21;102383.75;110233;1265;18859;-49
2022/03/10 00:45:09;;;;;;;;;12.67;12.67;;;;;21.53;38.35;102388.23;110202;1264;18932;-49
2022/03/10 00:47:36;;;;;;;;;13.33;11.33;;;;;21.52;38.15;102392.86;110249;1264;21835;-49
2022/03/10 00:50:04;;;;;;;;;13.00;12.00;;;;;21.53;38.07;102395.95;110235;1264;19148;-49
2022/03/10 00:52:31;;;;;;;;;13.67;12.67;;;;;21.52;38.09;102399.63;110248;1264;21825;-49
2022/03/10 00:54:58;;;;;;;;;12.00;12.00;;;;;21.53;38.18;102408.29;110242;1264;20258;-49
2022/03/10 00:57:25;;;;;;;;;15.00;13.00;;;;;21.52;38.02;102414.54;110275;1264;18835;-49
2022/03/10 00:59:53;;;;;;;;;13.00;13.00;;;;;21.52;38.13;102415.45;110272;1264;18352;-48
2022/03/10 01:02:20;;;;;;;;;12.00;10.00;;;;;21.52;38.02;102411.60;110311;1264;19294;-53
2022/03/10 01:04:47;;;;;;;;;14.00;13.00;;;;;21.52;38.25;102410.88;110279;1264;18910;-49
2022/03/10 01:07:14;;;;;;;;;12.33;12.00;;;;;21.51;37.97;102416.25;110310;1262;18596;-48
2022/03/10 01:09:41;;;;;;;;;13.00;12.33;;;;;21.52;37.93;102417.26;110336;1261;18816;-48
2022/03/10 01:12:10;;;;;;;;;10.67;10.67;;;;;21.52;38.02;102415.08;110322;1262;18880;-49
2022/03/10 01:14:37;;;;;;;;;10.67;10.67;;;;;21.51;37.79;102414.84;110313;1262;21599;-53
2022/03/10 01:17:04;;;;;;;;;13.00;11.00;;;;;21.52;37.89;102417.27;110330;1262;20159;-49
2022/03/10 01:19:32;;;;;;;;;10.67;10.00;;;;;21.51;38.06;102421.34;109637;1262;880261;-51
2022/03/10 01:21:59;;;;;;;;;12.00;10.00;;;;;21.51;37.87;102425.20;110268;1262;18265;-48
2022/03/10 01:24:26;;;;;;;;;15.67;13.00;;;;;21.52;37.71;102422.73;110435;1262;18901;-51
2022/03/10 01:26:54;;;;;;;;;13.50;13.00;;;;;21.51;37.74;102425.02;110327;1262;20219;-49
2022/03/10 01:29:21;;;;;;;;;15.33;13.00;;;;;21.51;37.68;102427.94;110368;1262;20844;-48
2022/03/10 01:31:48;;;;;;;;;10.00;10.00;;;;;21.51;37.92;102433.94;110400;1262;18863;-48
2022/03/10 01:34:15;;;;;;;;;12.00;11.33;;;;;21.50;37.86;102438.05;110294;1264;21930;-47
2022/03/10 01:36:43;;;;;;;;;13.33;10.00;;;;;21.50;37.91;102444.70;110317;1262;18213;-46
2022/03/10 01:39:10;;;;;;;;;10.00;10.00;;;;;21.51;37.82;102447.73;110312;1262;18677;-48
2022/03/10 01:41:38;;;;;;;;;11.00;9.00;;;;;21.51;37.84;102449.19;110331;1262;18753;-48
2022/03/10 01:44:05;;;;;;;;;9.67;9.67;;;;;21.51;37.70;102452.81;110377;1262;18115;-48
2022/03/10 01:46:32;;;;;;;;;10.00;10.00;;;;;21.51;37.80;102454.86;110324;1262;19375;-48
2022/03/10 01:49:00;;;;;;;;;13.00;12.00;;;;;21.50;37.76;102454.36;110351;1262;18697;-49
2022/03/10 01:51:27;;;;;;;;;15.00;10.00;;;;;21.50;37.60;102460.19;110325;1262;19550;-49
2022/03/10 01:53:54;;;;;;;;;9.00;9.00;;;;;21.50;37.66;102460.39;110319;1262;19539;-49
2022/03/10 01:56:21;;;;;;;;;12.33;12.00;;;;;21.50;37.70;102464.58;110360;1262;18756;-48
2022/03/10 01:58:49;;;;;;;;;9.50;9.50;;;;;21.50;37.59;102466.45;110325;1262;25562;-48
2022/03/10 02:01:16;;;;;;;;;9.33;9.00;;;;;21.49;37.58;102469.23;110326;1262;18906;-48
2022/03/10 02:03:43;;;;;;;;;12.00;10.00;;;;;21.48;37.61;102473.70;110273;1264;18496;-49
2022/03/10 02:06:10;;;;;;;;;10.00;9.33;;;;;21.48;37.73;102478.38;110317;1262;18265;-49
2022/03/10 02:11:23;;;;;;;;;9.00;9.00;;;;;21.48;37.31;102482.80;110379;1262;18881;-49
2022/03/10 02:13:50;;;;;;;;;11.33;10.67;;;;;21.47;37.47;102482.52;110344;1262;19331;-47
2022/03/10 02:19:13;;;;;;;;;10.00;9.00;;;;;21.48;37.67;102494.08;110111;1267;21921;-49
2022/03/10 02:21:41;;;;;;;;;9.67;9.33;;;;;21.48;37.45;102499.37;110094;1268;18195;-48
2022/03/10 02:24:08;;;;;;;;;9.67;9.00;;;;;21.48;37.45;102501.92;110125;1267;18740;-49
2022/03/10 02:26:35;;;;;;;;;10.00;8.50;;;;;21.48;37.30;102501.89;110073;1267;18939;-50
2022/03/10 02:29:02;;;;;;;;;10.00;8.00;;;;;21.48;37.30;102501.70;110152;1268;21122;-49
2022/03/10 02:31:29;;;;;;;;;11.00;9.00;;;;;21.48;37.29;102506.75;110097;1268;18778;-50
2022/03/10 02:33:57;;;;;;;;;12.00;10.00;;;;;21.47;37.52;102510.86;110109;1267;19764;-50
2022/03/10 02:36:24;;;;;;;;;9.00;8.33;;;;;21.47;37.39;102514.89;110081;1267;22956;-48
2022/03/10 02:38:51;;;;;;;;;13.33;10.67;;;;;21.47;37.42;102515.44;110057;1267;18723;-47
2022/03/10 02:41:18;;;;;;;;;9.00;9.00;;;;;21.47;37.28;102519.80;110027;1267;19142;-49
2022/03/10 02:43:46;;;;;;;;;8.67;8.67;;;;;21.47;37.32;102524.34;110093;1267;19047;-45
2022/03/10 02:46:13;;;;;;;;;9.33;8.67;;;;;21.47;37.18;102524.38;110086;1267;19046;-49
2022/03/10 02:48:40;;;;;;;;;11.33;10.00;;;;;21.47;37.39;102525.42;110101;1267;18433;-49
2022/03/10 02:51:07;;;;;;;;;8.00;8.00;;;;;21.46;37.42;102530.61;110082;1267;18460;-49
2022/03/10 02:53:34;;;;;;;;;12.00;10.00;;;;;21.47;37.31;102539.80;110172;1262;18869;-48
2022/03/10 02:56:02;;;;;;;;;9.33;9.00;;;;;21.47;37.41;102545.27;110376;1262;18465;-48
2022/03/10 02:58:29;;;;;;;;;10.00;9.33;;;;;21.47;37.28;102545.99;110341;1262;19395;-45
2022/03/10 03:00:56;;;;;;;;;13.67;10.67;;;;;21.47;37.15;102546.32;110362;1261;22028;-48
2022/03/10 03:03:23;;;;;;;;;9.00;9.00;;;;;21.46;37.43;102544.74;110420;1261;21061;-48
2022/03/10 03:05:51;;;;;;;;;8.50;8.00;;;;;21.45;37.29;102548.88;110311;1262;19061;-49
2022/03/10 03:08:18;;;;;;;;;10.00;9.00;;;;;21.46;37.40;102554.06;110363;1261;19405;-47
2022/03/10 03:10:46;;;;;;;;;9.50;8.50;;;;;21.45;37.52;102555.07;110343;1262;18414;-53
2022/03/10 03:13:14;;;;;;;;;10.67;10.00;;;;;21.46;37.31;102561.17;110345;1262;18084;-49
2022/03/10 03:15:41;;;;;;;;;12.00;11.33;;;;;21.45;37.20;102561.75;110367;1262;18580;-47
2022/03/10 03:18:08;;;;;;;;;10.67;9.33;;;;;21.44;37.27;102563.67;110279;1262;22065;-48
2022/03/10 03:20:35;;;;;;;;;6.67;6.00;;;;;21.45;37.39;102567.30;110330;1262;18156;-49
2022/03/10 03:23:03;;;;;;;;;10.00;9.00;;;;;21.45;37.38;102571.83;110250;1262;19178;-48
2022/03/10 03:25:30;;;;;;;;;9.00;8.67;;;;;21.44;37.21;102573.04;110176;1262;19450;-47
2022/03/10 03:27:57;;;;;;;;;9.00;8.00;;;;;21.43;37.39;102571.06;110267;1262;22358;-48
2022/03/10 03:30:24;;;;;;;;;7.33;7.33;;;;;21.44;37.39;102578.80;110229;1262;20585;-47
2022/03/10 03:32:51;;;;;;;;;11.33;9.00;;;;;21.45;37.34;102584.59;110263;1262;18659;-47
2022/03/10 03:35:19;;;;;;;;;10.00;8.33;;;;;21.44;37.45;102592.10;110386;1262;18250;-48
2022/03/10 03:37:46;;;;;;;;;8.00;8.00;;;;;21.44;37.28;102594.11;110317;1262;18769;-48
2022/03/10 03:40:13;;;;;;;;;9.00;8.00;;;;;21.44;37.40;102596.41;110389;1261;19095;-49
2022/03/10 03:42:40;;;;;;;;;9.00;9.00;;;;;21.44;37.31;102593.57;110327;1262;18014;-49
2022/03/10 03:45:08;;;;;;;;;8.33;8.00;;;;;21.44;37.39;102594.66;110410;1261;18751;-48
2022/03/10 03:47:35;;;;;;;;;7.67;6.00;;;;;21.43;37.27;102592.71;110367;1261;25564;-49
2022/03/10 03:50:04;;;;;;;;;8.00;6.00;;;;;21.43;37.33;102591.24;110374;1261;18409;-48
2022/03/10 03:52:31;;;;;;;;;10.00;9.00;;;;;21.44;37.25;102595.03;110371;1262;19246;-49
2022/03/10 03:54:58;;;;;;;;;9.00;9.00;;;;;21.43;37.32;102596.17;110237;1261;18686;-47
2022/03/10 03:57:25;;;;;;;;;8.00;8.00;;;;;21.43;37.20;102601.78;110434;1261;18138;-52
2022/03/10 03:59:53;;;;;;;;;8.00;8.00;;;;;21.44;37.18;102603.73;110444;1261;23899;-47
2022/03/10 04:02:20;;;;;;;;;9.67;8.67;;;;;21.44;37.35;102607.70;110518;1262;18461;-46
2022/03/10 04:04:47;;;;;;;;;9.00;9.00;;;;;21.43;37.32;102607.41;110435;1262;18258;-47
2022/03/10 04:07:15;;;;;;;;;8.50;8.00;;;;;21.43;37.36;102611.27;110449;1261;18717;-48
2022/03/10 04:09:43;;;;;;;;;9.00;9.00;;;;;21.43;37.15;102614.88;110459;1262;18318;-48
2022/03/10 04:12:10;;;;;;;;;8.00;8.00;;;;;21.44;37.20;102617.01;110474;1262;22146;-49
2022/03/10 04:14:37;;;;;;;;;8.00;8.00;;;;;21.43;37.34;102617.43;110331;1262;21500;-46
2022/03/10 04:17:05;;;;;;;;;6.00;6.00;;;;;21.42;37.32;102616.80;110338;1261;19238;-49
2022/03/10 04:19:32;;;;;;;;;7.67;6.00;;;;;21.43;37.28;102624.02;110292;1262;18024;-47
2022/03/10 04:22:00;;;;;;;;;10.00;8.67;;;;;21.42;37.13;102631.40;110361;1261;21544;-48
2022/03/10 04:24:27;;;;;;;;;9.00;9.00;;;;;21.42;37.07;102632.66;110439;1262;18376;-48
2022/03/10 04:26:54;;;;;;;;;9.00;8.00;;;;;21.42;37.08;102636.85;110438;1261;17933;-49
2022/03/10 04:29:22;;;;;;;;;10.67;10.00;;;;;21.43;37.15;102641.52;110513;1262;18753;-49
2022/03/10 04:31:49;;;;;;;;;8.33;8.00;;;;;21.41;37.29;102643.67;110431;1262;19516;-49
2022/03/10 04:34:16;;;;;;;;;12.00;9.33;;;;;21.41;37.32;102648.21;110501;1262;18145;-48
2022/03/10 04:36:43;;;;;;;;;8.67;8.00;;;;;21.42;37.21;102651.41;110359;1262;18965;-48
2022/03/10 04:39:11;;;;;;;;;9.00;8.00;;;;;21.42;37.06;102654.68;110391;1262;19044;-50
2022/03/10 04:41:38;;;;;;;;;8.00;8.00;;;;;21.41;37.28;102651.28;110476;1261;22698;-46
2022/03/10 04:44:05;;;;;;;;;10.00;9.00;;;;;21.42;37.47;102654.11;110304;1262;18690;-46
2022/03/10 04:46:32;;;;;;;;;7.00;6.00;;;;;21.41;37.38;102662.20;110329;1262;20452;-48
2022/03/10 04:49:00;;;;;;;;;8.00;8.00;;;;;21.40;37.29;102662.61;110460;1262;18054;-48
2022/03/10 04:51:27;;;;;;;;;8.67;8.00;;;;;21.42;37.19;102669.59;110421;1262;20751;-49
2022/03/10 04:53:55;;;;;;;;;6.00;6.00;;;;;21.41;37.42;102667.31;110427;1262;18340;-49
2022/03/10 04:56:22;;;;;;;;;8.00;8.00;;;;;21.40;37.30;102670.26;110492;1261;21237;-48
2022/03/10 04:58:50;;;;;;;;;12.00;10.00;;;;;21.41;37.28;102676.60;110452;1261;18696;-50
2022/03/10 05:01:17;;;;;;;;;8.00;8.00;;;;;21.40;37.11;102677.36;110433;1261;19872;-49
2022/03/10 05:03:44;;;;;;;;;8.00;8.00;;;;;21.40;37.07;102678.80;110392;1261;18421;-48
2022/03/10 05:06:11;;;;;;;;;9.00;9.00;;;;;21.40;36.96;102682.45;110313;1262;18862;-48
2022/03/10 05:08:38;;;;;;;;;9.00;8.00;;;;;21.39;37.07;102688.77;110325;1261;19394;-48
2022/03/10 05:11:06;;;;;;;;;10.67;9.33;;;;;21.40;36.68;102689.76;110377;1261;18119;-48
2022/03/10 05:13:33;;;;;;;;;9.00;9.00;;;;;21.41;36.67;102691.50;110450;1262;18970;-48
2022/03/10 05:16:00;;;;;;;;;6.67;6.00;;;;;21.41;36.91;102697.11;110426;1260;18746;-48
2022/03/10 05:18:27;;;;;;;;;9.00;9.00;;;;;21.41;36.88;102696.23;110441;1261;20239;-50
2022/03/10 05:20:55;;;;;;;;;6.00;6.00;;;;;21.41;36.87;102696.39;110445;1262;20107;-49
2022/03/10 05:23:22;;;;;;;;;8.00;8.00;;;;;21.41;36.59;102699.90;110514;1262;19496;-48
2022/03/10 05:25:50;;;;;;;;;9.00;8.00;;;;;21.40;36.77;102705.38;110424;1262;21691;-48
2022/03/10 05:28:17;;;;;;;;;9.00;7.00;;;;;21.40;36.64;102710.33;110425;1261;18778;-48
2022/03/10 05:30:45;;;;;;;;;9.33;9.00;;;;;21.39;36.63;102716.16;110404;1261;21250;-47
2022/03/10 05:33:12;;;;;;;;;10.00;9.00;;;;;21.39;36.65;102720.55;110445;1262;17985;-47
2022/03/10 05:35:39;;;;;;;;;9.50;9.00;;;;;21.39;36.64;102721.50;110410;1262;18766;-47
2022/03/10 05:38:06;;;;;;;;;8.00;8.00;;;;;21.38;36.60;102726.33;110445;1261;19319;-49
2022/03/10 05:40:34;;;;;;;;;9.00;8.00;;;;;21.38;36.70;102730.32;110418;1262;19454;-48
2022/03/10 05:43:01;;;;;;;;;8.67;8.00;;;;;21.37;36.65;102730.74;110340;1262;18713;-47
2022/03/10 05:45:28;;;;;;;;;11.33;10.00;;;;;21.35;36.77;102735.86;110425;1262;18324;-49
2022/03/10 05:47:55;;;;;;;;;13.00;10.00;;;;;21.37;36.57;102739.51;110330;1261;18178;-49
2022/03/10 05:50:24;;;;;;;;;10.00;9.00;;;;;21.40;36.61;102743.94;110468;1261;19022;-48
2022/03/10 05:52:51;;;;;;;;;12.00;9.00;;;;;21.46;36.81;102747.61;110305;1262;18677;-49
2022/03/10 05:55:18;;;;;;;;;9.33;9.33;;;;;21.52;37.27;102749.08;110069;1262;18326;-48
2022/03/10 05:57:45;;;;;;;;;9.00;9.00;;;;;21.58;37.48;102760.35;110293;1262;18872;-49
2022/03/10 06:00:14;;;;;;;;;10.00;8.00;;;;;21.64;37.96;102763.86;110271;1262;20483;-48
2022/03/10 06:02:41;;;;;;;;;8.67;6.00;;;;;21.67;38.13;102762.77;110390;1261;18434;-48
2022/03/10 06:05:09;;;;;;;;;8.67;8.33;;;;;21.69;38.36;102762.55;110265;1262;19513;-50
2022/03/10 06:07:36;;;;;;;;;12.00;10.00;;;;;21.74;38.24;102765.00;110213;1262;18560;-50
2022/03/10 06:10:03;;;;;;;;;9.00;9.00;;;;;21.81;38.51;102770.74;110267;1262;22254;-50
2022/03/10 06:12:30;;;;;;;;;9.00;8.67;;;;;21.87;39.02;102768.41;110281;1262;19527;-50
2022/03/10 06:14:58;;;;;;;;;12.00;12.00;;;;;21.86;39.03;102771.93;110406;1261;18579;-49
2022/03/10 06:17:25;;;;;;;;;11.00;10.00;;;;;21.89;39.24;102767.30;110378;1262;19219;-49
2022/03/10 06:19:52;;;;;;;;;9.00;9.00;;;;;21.91;39.17;102771.15;110280;1261;19737;-50
2022/03/10 06:22:19;;;;;;;;;10.00;9.33;;;;;21.92;39.51;102776.85;110294;1261;21074;-48
2022/03/10 06:24:47;;;;;;;;;11.67;10.00;;;;;21.92;39.39;102782.13;110303;1262;28858;-50
2022/03/10 06:27:14;;;;;;;;;12.00;10.00;;;;;21.96;39.54;102778.51;110271;1262;19593;-52
2022/03/10 06:29:41;;;;;;;;;11.00;9.33;;;;;21.97;39.50;102780.57;110324;1262;18719;-50
2022/03/10 06:32:08;;;;;;;;;10.00;9.33;;;;;22.03;39.36;102781.19;110417;1262;18898;-47
2022/03/10 06:34:37;;;;;;;;;12.00;9.50;;;;;22.02;39.33;102786.36;110380;1262;22011;-50
2022/03/10 06:37:04;;;;;;;;;10.00;9.00;;;;;22.05;39.09;102791.20;110153;1262;18746;-48
2022/03/10 06:39:31;;;;;;;;;12.33;11.00;;;;;22.07;39.07;102799.19;110378;1261;22127;-51
2022/03/10 06:41:59;;;;;;;;;11.00;9.00;;;;;22.10;39.28;102809.88;110295;1262;19488;-50
2022/03/10 06:44:26;;;;;;;;;10.00;10.00;;;;;22.19;39.12;102809.83;110345;1261;18701;-50
2022/03/10 06:46:53;;;;;;;;;13.33;11.67;;;;;22.07;38.54;102818.69;110271;1262;18784;-49
2022/03/10 06:49:21;;;;;;;;;13.00;12.00;;;;;21.80;37.67;102824.50;110385;1262;21386;-49
2022/03/10 06:51:49;;;;;;;;;20.33;16.33;;;;;21.55;36.74;102833.41;110233;1263;18828;-50
2022/03/10 06:54:17;;;;;;;;;16.50;14.50;;;;;21.37;35.98;102837.14;110345;1262;18961;-50
2022/03/10 06:56:45;;;;;;;;;16.00;14.00;;;;;21.08;35.40;102839.58;110372;1262;19436;-48
2022/03/10 06:59:12;;;;;;;;;14.00;13.00;;;;;21.21;35.09;102839.19;110252;1262;22656;-47
2022/03/10 07:01:39;;;;;;;;;16.00;15.00;;;;;21.54;34.73;102834.98;110290;1262;18964;-51
2022/03/10 07:04:06;;;;;;;;;17.00;14.00;;;;;21.81;34.65;102834.45;110336;1262;19592;-50
2022/03/10 07:06:34;;;;;;;;;12.00;11.00;;;;;21.96;34.91;102839.13;110307;1261;18746;-49
2022/03/10 07:09:01;;;;;;;;;13.67;13.00;;;;;22.06;35.23;102843.39;110315;1262;21797;-50
2022/03/10 07:11:28;;;;;;;;;10.00;10.00;;;;;22.13;35.45;102846.08;110298;1264;19497;-50
2022/03/10 07:13:55;;;;;;;;;13.50;12.00;;;;;22.18;35.72;102851.06;110228;1264;21952;-52
2022/03/10 07:16:23;;;;;;;;;13.00;11.00;;;;;22.20;35.98;102846.31;110186;1264;18901;-49
2022/03/10 07:18:51;;;;;;;;;14.00;11.00;;;;;22.27;35.98;102848.68;110331;1261;22284;-50
2022/03/10 07:21:18;;;;;;;;;12.67;11.00;;;;;22.30;36.14;102844.51;110391;1262;18702;-50
2022/03/10 07:23:46;;;;;;;;;13.00;10.33;;;;;22.38;36.33;102847.30;110427;1261;18794;-50
2022/03/10 07:26:13;;;;;;;;;11.00;10.00;;;;;22.40;36.72;102850.59;110448;1262;19536;-49
2022/03/10 07:28:40;;;;;;;;;10.50;10.00;;;;;22.46;36.77;102856.05;110358;1261;19003;-51
2022/03/10 07:31:07;;;;;;;;;11.67;10.00;;;;;22.50;36.92;102859.83;110333;1262;19046;-51
2022/03/10 07:33:35;;;;;;;;;15.00;13.67;;;;;22.47;36.78;102861.96;110416;1261;19527;-50
2022/03/10 07:36:02;;;;;;;;;14.00;13.67;;;;;22.42;36.35;102869.52;110337;1262;18737;-50
2022/03/10 07:38:29;;;;;;;;;13.00;11.33;;;;;22.20;34.95;102871.08;110488;1261;19056;-49
2022/03/10 07:40:58;;;;;;;;;19.00;17.00;;;;;21.95;34.33;102865.94;110385;1262;21948;-49
2022/03/10 07:43:25;;;;;;;;;14.33;13.67;;;;;21.88;33.86;102864.58;110348;1261;18765;-50
2022/03/10 07:45:52;;;;;;;;;20.50;17.50;;;;;21.83;32.41;102863.88;110415;1262;18822;-50
2022/03/10 07:48:21;;;;;;;;;21.33;18.00;;;;;21.83;31.68;102860.84;110281;1261;21937;-50
2022/03/10 07:50:48;;;;;;;;;22.67;18.00;;;;;21.82;31.34;102864.55;110325;1261;18783;-50
2022/03/10 07:53:15;;;;;;;;;15.00;15.00;;;;;21.82;31.12;102862.36;110281;1262;18947;-50
2022/03/10 07:55:44;;;;;;;;;22.00;21.00;;;;;21.83;30.33;102863.39;110354;1262;19492;-49
2022/03/10 07:58:11;;;;;;;;;17.67;16.00;;;;;21.82;30.69;102862.16;110382;1261;18920;-50
2022/03/10 08:00:38;;;;;;;;;15.67;15.00;;;;;21.84;30.96;102861.45;110377;1261;18788;-50
2022/03/10 08:03:06;;;;;;;;;18.33;17.33;;;;;21.85;30.92;102868.72;110326;1262;19739;-51
2022/03/10 08:05:34;;;;;;;;;16.50;14.50;;;;;21.86;31.34;102872.95;110335;1261;18699;-50
2022/03/10 08:08:02;;;;;;;;;25.50;22.00;;;;;21.91;31.44;102877.49;110201;1260;19238;-49
2022/03/10 08:10:30;;;;;;;;;23.33;21.00;;;;;21.83;29.90;102882.30;110258;1261;20848;-51
2022/03/10 08:12:57;;;;;;;;;21.67;20.67;;;;;21.77;29.30;102881.02;110358;1262;18992;-50
2022/03/10 08:15:25;;;;;;;;;24.00;21.00;;;;;21.79;29.49;102885.37;110207;1261;19023;-50
2022/03/10 08:17:53;;;;;;;;;21.00;19.33;;;;;21.71;28.32;102878.29;110205;1264;23122;-48
2022/03/10 08:20:20;;;;;;;;;18.00;17.00;;;;;21.73;28.78;102875.73;110441;1262;18706;-49
2022/03/10 08:22:47;;;;;;;;;18.00;17.00;;;;;21.85;29.26;102877.95;110251;1261;18806;-50
2022/03/10 08:25:14;;;;;;;;;18.00;18.00;;;;;22.01;29.29;102874.87;110300;1262;19494;-51
2022/03/10 08:27:43;;;;;;;;;19.00;17.50;;;;;22.16;29.23;102879.33;110178;1262;18710;-51
2022/03/10 08:30:13;;;;;;;;;18.33;16.33;;;;;22.26;29.83;102880.42;110320;1262;18791;-49
2022/03/10 08:32:40;;;;;;;;;18.67;18.33;;;;;22.36;30.64;102879.50;110231;1264;22312;-52
2022/03/10 08:35:07;;;;;;;;;18.00;16.33;;;;;22.46;31.18;102877.39;110323;1261;19043;-50
2022/03/10 08:37:35;;;;;;;;;24.00;18.00;;;;;22.51;31.35;102877.27;110217;1264;18968;-50
2022/03/10 08:40:02;;;;;;;;;17.50;17.50;;;;;22.55;31.67;102876.33;110149;1262;20866;-49
2022/03/10 08:42:29;;;;;;;;;22.67;21.00;;;;;22.56;32.02;102879.40;110281;1261;19323;-50
2022/03/10 08:44:56;;;;;;;;;22.00;20.50;;;;;22.49;31.84;102882.59;110175;1262;22974;-48
2022/03/10 08:47:24;;;;;;;;;24.67;22.00;;;;;22.51;31.79;102884.19;110357;1261;19464;-48
2022/03/10 08:49:51;;;;;;;;;22.33;20.00;;;;;22.55;32.20;102887.66;110217;1262;18867;-51
2022/03/10 08:52:18;;;;;;;;;22.00;19.67;;;;;22.56;32.32;102893.38;110219;1264;19673;-50
2022/03/10 08:54:45;;;;;;;;;21.50;19.00;;;;;22.58;32.55;102889.77;110172;1262;19526;-47
2022/03/10 08:57:13;;;;;;;;;20.00;18.00;;;;;22.62;33.30;102887.04;110343;1262;18860;-50
2022/03/10 08:59:40;;;;;;;;;20.00;18.67;;;;;22.61;33.68;102884.00;110302;1264;18818;-51
2022/03/10 09:02:07;;;;;;;;;21.00;18.67;;;;;22.64;33.80;102881.18;110431;1262;19447;-49
2022/03/10 09:04:34;;;;;;;;;21.33;19.33;;;;;22.67;34.45;102877.46;110296;1262;18743;-49
2022/03/10 09:07:02;;;;;;;;;18.00;16.00;;;;;22.72;34.57;102876.35;110389;1262;18843;-48
2022/03/10 09:09:29;;;;;;;;;19.67;19.00;;;;;22.74;34.23;102877.08;110423;1262;19454;-48
2022/03/10 09:11:56;;;;;;;;;21.00;19.33;;;;;22.72;34.51;102879.09;110350;1261;22723;-52
2022/03/10 09:14:24;;;;;;;;;18.67;18.00;;;;;22.73;34.44;102877.52;110455;1262;19076;-50
2022/03/10 09:16:52;;;;;;;;;17.33;15.33;;;;;22.75;34.55;102876.04;110377;1262;19521;-50
2022/03/10 09:19:19;;;;;;;;;16.00;16.00;;;;;22.76;34.45;102880.33;110305;1262;18999;-52
2022/03/10 09:21:47;;;;;;;;;15.00;14.33;;;;;22.78;34.46;102882.15;110350;1262;18780;-50
2022/03/10 09:24:14;;;;;;;;;20.00;17.33;;;;;22.80;34.54;102889.24;110260;1262;19699;-47
2022/03/10 09:26:41;;;;;;;;;19.67;18.00;;;;;22.75;34.57;102879.63;110383;1261;18769;-52
2022/03/10 09:29:08;;;;;;;;;20.33;17.00;;;;;22.75;34.62;102877.85;110434;1262;18905;-50
2022/03/10 09:31:36;;;;;;;;;20.00;16.00;;;;;22.72;34.50;102877.59;110364;1261;19668;-50
2022/03/10 09:34:04;;;;;;;;;18.00;16.50;;;;;22.70;34.42;102873.03;110387;1262;19545;-49
2022/03/10 09:36:31;;;;;;;;;17.33;15.33;;;;;22.69;34.26;102878.95;110349;1262;18899;-48
2022/03/10 09:38:58;;;;;;;;;18.67;16.33;;;;;22.65;34.45;102875.64;110398;1262;19464;-49
2022/03/10 09:41:28;;;;;;;;;19.00;16.33;;;;;22.62;34.36;102878.44;110482;1262;18686;-50
2022/03/10 09:43:56;;;;;;;;;19.50;17.00;;;;;22.59;34.55;102875.84;110387;1262;18819;-48
2022/03/10 09:46:23;;;;;;;;;17.33;14.67;;;;;22.55;34.39;102881.44;110282;1262;21797;-49
2022/03/10 09:48:50;;;;;;;;;20.00;17.00;;;;;22.52;34.38;102884.67;110341;1262;19509;-48
2022/03/10 09:51:18;;;;;;;;;22.00;18.50;;;;;22.35;33.05;102885.98;110413;1262;23923;-50
2022/03/10 09:53:45;;;;;;;;;31.50;29.00;;;;;21.47;29.66;102891.75;110294;1262;19441;-49
2022/03/10 09:56:12;;;;;;;;;35.67;32.00;;;;;21.22;29.26;102892.77;110341;1261;18787;-52
2022/03/10 09:58:40;;;;;;;;;38.67;33.67;;;;;21.10;27.24;102894.44;110300;1262;19287;-49
2022/03/10 10:01:07;;;;;;;;;43.67;37.33;;;;;20.71;26.15;102892.57;110183;1262;19784;-49
2022/03/10 10:03:35;;;;;;;;;39.50;36.00;;;;;20.87;26.22;102894.05;110385;1261;18732;-51
2022/03/10 10:06:02;;;;;;;;;42.33;37.67;;;;;21.01;25.60;102891.60;110384;1261;19096;-50
2022/03/10 10:08:30;;;;;;;;;44.00;37.33;;;;;21.28;27.42;102898.46;110309;1262;19713;-49
2022/03/10 10:10:59;;;;;;;;;38.00;34.00;;;;;21.52;28.10;102893.20;110303;1262;18821;-49
2022/03/10 10:13:28;;;;;;;;;41.33;33.00;;;;;21.73;28.34;102893.92;110319;1261;18869;-49
2022/03/10 10:15:55;;;;;;;;;36.00;32.00;;;;;21.89;28.53;102894.03;110378;1262;19939;-50
2022/03/10 10:18:23;;;;;;;;;37.00;32.50;;;;;22.01;28.94;102894.04;110400;1261;19092;-50
2022/03/10 10:20:50;;;;;;;;;35.00;31.00;;;;;22.09;29.73;102895.86;110363;1262;18782;-51
2022/03/10 10:23:17;;;;;;;;;26.00;25.00;;;;;22.13;30.16;102899.55;110384;1261;19463;-48
2022/03/10 10:25:45;;;;;;;;;34.00;29.67;;;;;22.17;30.57;102893.83;110327;1261;18795;-51
2022/03/10 10:28:12;;;;;;;;;30.33;28.67;;;;;22.21;30.60;102896.52;110409;1261;18837;-49
2022/03/10 10:30:39;;;;;;;;;32.00;29.00;;;;;22.23;30.77;102899.83;110339;1262;19460;-50
2022/03/10 10:33:07;;;;;;;;;30.50;28.50;;;;;22.25;31.08;102893.46;110329;1262;18734;-49
2022/03/10 10:35:34;;;;;;;;;23.50;22.00;;;;;22.08;30.71;102891.65;110320;1261;22980;-50
2022/03/10 10:38:01;;;;;;;;;22.00;22.00;;;;;21.84;29.76;102899.31;110343;1261;19417;-49
2022/03/10 10:40:31;;;;;;;;;28.33;25.67;;;;;21.58;28.66;102898.88;110380;1261;20262;-49
2022/03/10 10:43:00;;;;;;;;;25.33;24.67;;;;;21.56;27.79;102897.93;110378;1261;18763;-50
2022/03/10 10:45:27;;;;;;;;;24.33;21.33;;;;;21.58;27.25;102908.98;110395;1261;19783;-52
2022/03/10 10:47:55;;;;;;;;;24.67;22.33;;;;;21.53;26.40;102902.17;110414;1262;18964;-51
2022/03/10 10:50:22;;;;;;;;;24.00;21.00;;;;;21.53;25.99;102902.95;110458;1262;18840;-52
2022/03/10 10:52:49;;;;;;;;;21.00;20.00;;;;;21.55;25.91;102895.60;110429;1261;21167;-50
2022/03/10 10:55:16;;;;;;;;;25.00;20.67;;;;;21.54;25.70;102893.33;110315;1261;19060;-49
2022/03/10 10:57:44;;;;;;;;;21.67;20.33;;;;;21.56;24.88;102892.48;110388;1262;18902;-50
2022/03/10 11:00:11;;;;;;;;;21.50;18.00;;;;;21.57;24.78;102893.31;110371;1262;19533;-50
2022/03/10 11:02:43;;;;;;;;;24.33;19.33;;;;;21.55;24.22;102890.92;110396;1262;18793;-51
2022/03/10 11:05:11;;;;;;;;;21.00;18.00;;;;;21.51;24.37;102885.80;110338;1262;23923;-49
2022/03/10 11:07:38;;;;;;;;;20.00;18.33;;;;;21.50;24.77;102889.70;110204;1261;19432;-50
2022/03/10 11:10:07;;;;;;;;;21.00;20.67;;;;;21.55;24.93;102890.52;110231;1262;19002;-45
2022/03/10 11:12:34;;;;;;;;;22.00;21.00;;;;;21.64;25.21;102895.10;110336;1262;18944;-47